Metar Cercanos

 

LEPA - Palma De Mallorc, Spain
Distance from station: ONO 38km
Actualización: 11/12/2017 20:30
Few Clouds
Few Clouds
 Viento del O
Viento: O 28 km/h
Temperatura: 14°C
Rocío: 7°C
Humedad: 63%
Barómetro: 1001 hPa
Clouds: Few Clouds
Visibility: 10 km
Cloud details: Few Clouds 762 m
2017/12/11 19:30 LEPA 111930Z 27015KT 9999 FEW025 14/07 Q1001 NOSIG
LEMH - Mahon/Menorca Is, Spain
Distance from station: ENE 105km
Actualización: 11/12/2017 20:30
Parcialmente nuboso
Parcialmente nuboso
 Viento del OSO
Viento: OSO 28 km/h
Temperatura: 14°C
Rocío: 8°C
Humedad: 67%
Barómetro: 1001 hPa
Clouds: Parcialmente nuboso
Visibility: 10 km
Cloud details: Parcialmente nuboso 762 m
2017/12/11 19:30 LEMH 111930Z 25015KT 220V290 9999 SCT025 14/08 Q1001
 
LEIB - Ibiza/Es Codola, Spain
Distance from station: OSO 165km
Actualización: 11/12/2017 20:30
Few Clouds
Few Clouds
 Viento del OSO
Viento: OSO 28 km/h
Temperatura: 13°C
Rocío: 4°C
Humedad: 55%
Barómetro: 1002 hPa
Clouds: Few Clouds
Visibility: 10 km
Cloud details: Few Clouds 762 m
2017/12/11 19:30 LEIB 111930Z 25015KT 210V280 9999 FEW025 13/04 Q1002 NOSIG
LEBL - Barcelona Airpor, Spain
Distance from station: NNO 225km
Actualización: 11/12/2017 20:30
Despejado
Despejado
 Viento del OSO
Viento: OSO 19 km/h
Temperatura: 11°C
Rocío: 2°C
Humedad: 54%
Barómetro: 999 hPa
Resumen: Despejado
Visibility: greater than 10 km
2017/12/11 19:30 LEBL 111930Z 25010KT CAVOK 11/02 Q0999 NOSIG
 
LEVC - Valencia (civ/Mi, Spain
Distance from station: NO 188km
Actualización: 11/12/2017 20:30
Despejado
Despejado
 Viento del O
Viento: O 22 km/h
Temperatura: 12°C
Rocío: 4°C
Humedad: 58%
Barómetro: 1002 hPa
Resumen: Despejado
Visibility: greater than 10 km
2017/12/11 19:30 LEVC 111930Z 27012KT CAVOK 12/04 Q1002 NOSIG
LEGE - Gerona/Costa Bra, Spain
Distance from station: N 276km
Actualización: 11/12/2017 20:30
Few Clouds
Few Clouds
 Viento del varies
Viento: varies 2 km/h
Temperatura: 6°C
Rocío: 4°C
Humedad: 87%
Barómetro: 998 hPa
Clouds: Few Clouds
Visibility: 10 km
Cloud details: Few Clouds 1067 m
2017/12/11 19:30 LEGE 111930Z VRB01KT 9999 FEW035 06/04 Q0998
 
LEAL - Alicante/El Alte, Spain
Distance from station: OSO 344km
Actualización: 11/12/2017 20:30
Despejado
Despejado
 Viento del O
Viento: O 7 km/h
Temperatura: 8°C
Sensación frio: 7°C
Rocío: 1°C
Humedad: 62%
Barómetro: 1004 hPa
Resumen: Despejado
Visibility: greater than 10 km
2017/12/11 19:30 LEAL 111930Z 28004KT CAVOK 08/01 Q1004 NOSIG
LEAM - Almeria Airport, Spain
Distance from station: SSO 56km
Actualización: 11/12/2017 20:30
Despejado
Despejado
 Viento del NE
Viento: NE 6 km/h
Temperatura: 11°C
Rocío: 3°C
Humedad: 58%
Barómetro: 1004 hPa
Resumen: Despejado
Visibility: greater than 10 km
2017/12/11 19:30 LEAM 111930Z 05003KT 350V070 CAVOK 11/03 Q1004
 
LEZG - Zaragoza (mil/Ci, Spain
Distance from station: NO 431km
Actualización: 11/12/2017 20:30
Parcialmente nuboso
Parcialmente nuboso
 Viento del O
Viento: O 19 km/h
Temperatura: 8°C
Sensación frio: 4°C
Rocío: 3°C
Humedad: 71%
Barómetro: 1001 hPa
Clouds: Parcialmente nuboso
Visibility: 10 km
Cloud details: Parcialmente nuboso 1981 m
2017/12/11 19:30 LEZG 111930Z 28010KT 9999 SCT065 08/03 Q1001
LEMD - Madrid/Barajas, Spain
Distance from station: ONO 234km
Actualización: 11/12/2017 20:30
Parcialmente nuboso
Parcialmente nuboso
 Viento del O
Viento: O 17 km/h
Temperatura: 7°C
Sensación frio: 4°C
Rocío: 2°C
Humedad: 71%
Barómetro: 1002 hPa
Clouds: Parcialmente nuboso
Visibility: 10 km
Cloud details: Few Clouds 1372 m
Parcialmente nuboso 2438 m
2017/12/11 19:30 LEMD 111930Z 27009KT 230V300 9999 FEW045 SCT080 07/02 Q1002 NOSIG
 
LEGR - Granada Airport, Spain
Distance from station: OSO 62km
Actualización: 11/12/2017 20:30
Muy nuboso
Muy nuboso
 Viento del varies
Viento: varies 2 km/h
Temperatura: 7°C
Rocío: 5°C
Humedad: 87%
Barómetro: 1006 hPa
Clouds: Muy nuboso
Visibility: 10 km
Cloud details: Few Clouds 610 m
Parcialmente nuboso 1067 m
Muy nuboso 1372 m
2017/12/11 19:30 LEGR 111930Z VRB01KT 9999 FEW020 SCT035 BKN045 07/05 Q1006
LEMG - Malaga (civ/Mil), Spain
Distance from station: OSO 227km
Actualización: 11/12/2017 20:30
Few Clouds
Few Clouds
 Viento del varies
Viento: varies 2 km/h
Temperatura: 9°C
Rocío: 6°C
Humedad: 82%
Barómetro: 1007 hPa
Clouds: Few Clouds
Visibility: 10 km
Cloud details: Few Clouds 1829 m
2017/12/11 19:30 LEMG 111930Z VRB01KT 9999 FEW060 09/06 Q1007 NOSIG
 
LEZL - Sevilla (civ/Mil, Spain
Distance from station: S 318km
Actualización: 11/12/2017 20:30
Despejado
Despejado
 Viento del NNO
Viento: NNO 11 km/h
Temperatura: 13°C
Rocío: 8°C
Humedad: 72%
Barómetro: 1006 hPa
Resumen: Despejado
Visibility: greater than 10 km
2017/12/11 19:30 LEZL 111930Z 33006KT 300V010 CAVOK 13/08 Q1006 NOSIG
LEVT - Vitoria, Spain
Distance from station: NO 226km
Actualización: 11/12/2017 20:30
Parcialmente nuboso
Parcialmente nuboso
 Viento del varies
Viento: varies 2 km/h
Temperatura: 4°C
Rocío: 1°C
Humedad: 81%
Barómetro: 1002 hPa
Clouds: Parcialmente nuboso
Visibility: 10 km
Cloud details: Few Clouds 853 m
Parcialmente nuboso 1463 m
2017/12/11 19:30 LEVT 111930Z VRB01KT 9999 FEW028 SCT048 04/01 Q1002
 
LEBB - Bilbao/Sondica, Spain
Distance from station: NNO 235km
Actualización: 11/12/2017 20:30
Lluvia débil, Parcialmente nuboso
Lluvia débil, Parcialmente nuboso
 Viento del O
Viento: O 7 km/h
Temperatura: 7°C
Sensación frio: 6°C
Rocío: 5°C
Humedad: 87%
Barómetro: 1003 hPa
Resumen: Lluvia débil
Clouds: Parcialmente nuboso
Visibility: 10 km
Cloud details: Few Clouds 853 m
Parcialmente nuboso 1128 m
2017/12/11 19:30 LEBB 111930Z 27004KT 250V320 9999 -RA FEW028 SCT037 07/05 Q1003 TEMPO 3000 SHRA SCT020TCU
LESO - San Sebastian/Fu, Spain
Distance from station: N 231km
Actualización: 11/12/2017 20:30
Lluvia débil, Muy nuboso
Lluvia débil, Muy nuboso
 Viento del OSO
Viento: OSO 19 km/h
Temperatura: 7°C
Sensación frio: 4°C
Rocío: 5°C
Humedad: 87%
Barómetro: 1001 hPa
Resumen: Lluvia débil
Clouds: Muy nuboso
Visibility: 10 km
Cloud details: Parcialmente nuboso 1067 m
Muy nuboso 1829 m
2017/12/11 19:30 LESO 111930Z 24010KT 200V280 9999 -RA SCT035 BKN060 07/05 Q1001
 
LEVD - Valladolid(Mil/C, Spain
Distance from station: ONO 239km
Actualización: 11/12/2017 20:30
Few Clouds
Few Clouds
 Viento del NO
Viento: NO 17 km/h
Temperatura: 2°C
Sensación frio: -2°C
Rocío: -2°C
Humedad: 75%
Barómetro: 1003 hPa
Clouds: Few Clouds
Visibility: 10 km
Cloud details: Few Clouds 914 m
2017/12/11 19:30 LEVD 111930Z 32009KT 9999 FEW030 02/M02 Q1003
LESA - Salamanca (civ/M, Spain
Distance from station: ONO 349km
Actualización: 11/12/2017 20:00
Few Clouds
Few Clouds
 Viento del ONO
Viento: ONO 22 km/h
Temperatura: 3°C
Sensación frio: -2°C
Rocío: 1°C
Humedad: 87%
Barómetro: 1003 hPa
Clouds: Few Clouds
Visibility: 10 km
Cloud details: Few Clouds 518 m
2017/12/11 19:00 LESA 111900Z 30012KT 9999 FEW017 03/01 Q1003
 
LEXJ - Santander/Paraya, Spain
Distance from station: NNO 247km
Actualización: 11/12/2017 20:30
Muy nuboso
Muy nuboso
 Viento del NO
Viento: NO 28 km/h
Temperatura: 10°C
Sensación frio: 7°C
Rocío: 3°C
Humedad: 62%
Barómetro: 1003 hPa
Clouds: Muy nuboso
Visibility: 10 km
Cloud details: Few Clouds 792 m
Parcialmente nuboso 1097 m
Muy nuboso 1707 m
2017/12/11 19:30 LEXJ 111930Z 31015KT 280V350 9999 FEW026CB SCT036 BKN056 10/03 Q1003
LEAS - Asturias/Aviles, Spain
Distance from station: NO 214km
Actualización: 11/12/2017 20:30
Parcialmente nuboso
Parcialmente nuboso
 Viento del NO
Viento: NO 24 km/h, Racha: 52 km/h
Temperatura: 7°C
Sensación frio: 3°C
Rocío: 5°C
Humedad: 87%
Barómetro: 1005 hPa
Clouds: Parcialmente nuboso
Visibility: 10 km
Cloud details: Few Clouds 762 m
Parcialmente nuboso 1219 m
2017/12/11 19:30 LEAS 111930Z 31013G28KT 270V350 9999 FEW025TCU SCT040 07/05 Q1005 TEMPO 3000 SHRAGR
 
LECO - La Coruna/Alvedr, Spain
Distance from station: ONO 222km
Actualización: 11/12/2017 20:30
Parcialmente nuboso
Parcialmente nuboso
 Viento del NNO
Viento: NNO 15 km/h
Temperatura: 10°C
Sensación frio: 8°C
Rocío: 3°C
Humedad: 62%
Barómetro: 1008 hPa
Clouds: Parcialmente nuboso
Visibility: 10 km
Cloud details: Parcialmente nuboso 1372 m
2017/12/11 19:30 LECO 111930Z 34008KT 300V010 9999 SCT045 10/03 Q1008 TEMPO 3000 SHRA SCT020TCU
LEVX - Vigo/Peinador, Spain
Distance from station: O 214km
Actualización: 11/12/2017 20:30
Few Clouds
Few Clouds
 Viento del NO
Viento: NO 6 km/h
Temperatura: 7°C
Rocío: 3°C
Humedad: 76%
Barómetro: 1009 hPa
Clouds: Few Clouds
Visibility: 10 km
Cloud details: Few Clouds 945 m
2017/12/11 19:30 LEVX 111930Z 32003KT 290V350 9999 FEW031 07/03 Q1009 NOSIG